sensor_id;sensor_type;location;lat;lon;timestamp;P1;durP1;ratioP1;P2;durP2;ratioP2
35434;SDS011;21556;55.782;37.528;2022-08-19T00:01:24;8.85;;;4.05;;
35434;SDS011;21556;55.782;37.528;2022-08-19T00:03:51;9.55;;;3.70;;
35434;SDS011;21556;55.782;37.528;2022-08-19T00:06:17;9.48;;;4.07;;
35434;SDS011;21556;55.782;37.528;2022-08-19T00:08:43;9.55;;;4.13;;
35434;SDS011;21556;55.782;37.528;2022-08-19T00:11:10;9.00;;;4.63;;
35434;SDS011;21556;55.782;37.528;2022-08-19T00:13:38;9.90;;;5.40;;
35434;SDS011;21556;55.782;37.528;2022-08-19T00:16:05;9.40;;;4.78;;
35434;SDS011;21556;55.782;37.528;2022-08-19T00:18:32;8.38;;;5.07;;
35434;SDS011;21556;55.782;37.528;2022-08-19T00:21:01;6.80;;;5.38;;
35434;SDS011;21556;55.782;37.528;2022-08-19T00:23:27;9.45;;;5.18;;
35434;SDS011;21556;55.782;37.528;2022-08-19T00:25:53;10.77;;;6.10;;
35434;SDS011;21556;55.782;37.528;2022-08-19T00:28:19;9.80;;;5.45;;
35434;SDS011;21556;55.782;37.528;2022-08-19T00:30:45;13.10;;;6.10;;
35434;SDS011;21556;55.782;37.528;2022-08-19T00:33:12;10.45;;;6.40;;
35434;SDS011;21556;55.782;37.528;2022-08-19T00:35:39;14.05;;;5.90;;
35434;SDS011;21556;55.782;37.528;2022-08-19T00:38:04;11.38;;;6.15;;
35434;SDS011;21556;55.782;37.528;2022-08-19T00:40:33;13.93;;;6.30;;
35434;SDS011;21556;55.782;37.528;2022-08-19T00:42:59;19.48;;;6.75;;
35434;SDS011;21556;55.782;37.528;2022-08-19T00:45:26;18.35;;;7.22;;
35434;SDS011;21556;55.782;37.528;2022-08-19T00:47:55;15.00;;;6.80;;
35434;SDS011;21556;55.782;37.528;2022-08-19T00:50:21;19.70;;;6.68;;
35434;SDS011;21556;55.782;37.528;2022-08-19T00:52:49;11.68;;;6.40;;
35434;SDS011;21556;55.782;37.528;2022-08-19T00:55:20;11.13;;;6.50;;
35434;SDS011;21556;55.782;37.528;2022-08-19T00:57:53;12.70;;;7.25;;
35434;SDS011;21556;55.782;37.528;2022-08-19T01:00:23;12.48;;;6.53;;
35434;SDS011;21556;55.782;37.528;2022-08-19T01:02:51;9.75;;;6.03;;
35434;SDS011;21556;55.782;37.528;2022-08-19T01:05:23;14.47;;;8.00;;
35434;SDS011;21556;55.782;37.528;2022-08-19T01:07:52;10.30;;;6.72;;
35434;SDS011;21556;55.782;37.528;2022-08-19T01:10:20;14.23;;;7.05;;
35434;SDS011;21556;55.782;37.528;2022-08-19T01:12:50;9.90;;;6.75;;
35434;SDS011;21556;55.782;37.528;2022-08-19T01:15:19;10.18;;;6.80;;
35434;SDS011;21556;55.782;37.528;2022-08-19T01:17:48;11.48;;;6.88;;
35434;SDS011;21556;55.782;37.528;2022-08-19T01:20:16;12.40;;;7.80;;
35434;SDS011;21556;55.782;37.528;2022-08-19T01:25:14;14.55;;;6.90;;
35434;SDS011;21556;55.782;37.528;2022-08-19T01:27:43;13.50;;;7.32;;
35434;SDS011;21556;55.782;37.528;2022-08-19T01:30:17;10.88;;;6.72;;
35434;SDS011;21556;55.782;37.528;2022-08-19T01:32:48;8.88;;;6.63;;
35434;SDS011;21556;55.782;37.528;2022-08-19T01:35:15;11.98;;;6.63;;
35434;SDS011;21556;55.782;37.528;2022-08-19T01:37:44;14.65;;;6.90;;
35434;SDS011;21556;55.782;37.528;2022-08-19T01:40:19;12.13;;;6.50;;
35434;SDS011;21556;55.782;37.528;2022-08-19T01:42:50;10.43;;;6.00;;
35434;SDS011;21556;55.782;37.528;2022-08-19T01:45:18;11.32;;;6.82;;
35434;SDS011;21556;55.782;37.528;2022-08-19T01:50:11;14.65;;;6.22;;
35434;SDS011;21556;55.782;37.528;2022-08-19T01:52:38;14.13;;;6.80;;
35434;SDS011;21556;55.782;37.528;2022-08-19T01:55:06;11.25;;;6.47;;
35434;SDS011;21556;55.782;37.528;2022-08-19T01:57:34;11.02;;;5.93;;
35434;SDS011;21556;55.782;37.528;2022-08-19T02:00:00;8.40;;;6.10;;
35434;SDS011;21556;55.782;37.528;2022-08-19T02:02:37;10.95;;;6.65;;
35434;SDS011;21556;55.782;37.528;2022-08-19T02:05:04;10.20;;;6.70;;
35434;SDS011;21556;55.782;37.528;2022-08-19T02:07:33;12.38;;;6.43;;
35434;SDS011;21556;55.782;37.528;2022-08-19T02:10:04;11.20;;;6.90;;
35434;SDS011;21556;55.782;37.528;2022-08-19T02:12:32;10.10;;;5.85;;
35434;SDS011;21556;55.782;37.528;2022-08-19T02:14:58;10.20;;;6.20;;
35434;SDS011;21556;55.782;37.528;2022-08-19T02:17:24;9.02;;;5.95;;
35434;SDS011;21556;55.782;37.528;2022-08-19T02:19:50;12.52;;;6.40;;
35434;SDS011;21556;55.782;37.528;2022-08-19T02:22:16;10.75;;;5.40;;
35434;SDS011;21556;55.782;37.528;2022-08-19T02:24:42;11.45;;;6.75;;
35434;SDS011;21556;55.782;37.528;2022-08-19T02:27:08;16.02;;;6.18;;
35434;SDS011;21556;55.782;37.528;2022-08-19T02:29:33;12.57;;;6.20;;
35434;SDS011;21556;55.782;37.528;2022-08-19T02:31:59;12.23;;;6.05;;
35434;SDS011;21556;55.782;37.528;2022-08-19T02:34:25;12.32;;;6.07;;
35434;SDS011;21556;55.782;37.528;2022-08-19T02:36:54;12.48;;;6.47;;
35434;SDS011;21556;55.782;37.528;2022-08-19T02:39:20;8.38;;;5.88;;
35434;SDS011;21556;55.782;37.528;2022-08-19T02:41:46;14.32;;;6.63;;
35434;SDS011;21556;55.782;37.528;2022-08-19T02:47:31;12.48;;;6.95;;
35434;SDS011;21556;55.782;37.528;2022-08-19T02:50:25;16.08;;;8.05;;
35434;SDS011;21556;55.782;37.528;2022-08-19T02:52:57;13.02;;;6.65;;
35434;SDS011;21556;55.782;37.528;2022-08-19T02:55:23;15.85;;;6.68;;
35434;SDS011;21556;55.782;37.528;2022-08-19T02:57:49;13.95;;;6.90;;
35434;SDS011;21556;55.782;37.528;2022-08-19T03:00:15;11.65;;;6.90;;
35434;SDS011;21556;55.782;37.528;2022-08-19T03:02:41;13.48;;;6.30;;
35434;SDS011;21556;55.782;37.528;2022-08-19T03:05:08;8.98;;;6.35;;
35434;SDS011;21556;55.782;37.528;2022-08-19T03:07:35;10.20;;;7.38;;
35434;SDS011;21556;55.782;37.528;2022-08-19T03:10:02;12.68;;;6.55;;
35434;SDS011;21556;55.782;37.528;2022-08-19T03:12:28;14.00;;;6.20;;
35434;SDS011;21556;55.782;37.528;2022-08-19T03:14:54;13.13;;;6.97;;
35434;SDS011;21556;55.782;37.528;2022-08-19T03:17:21;12.55;;;6.78;;
35434;SDS011;21556;55.782;37.528;2022-08-19T03:19:46;14.38;;;6.60;;
35434;SDS011;21556;55.782;37.528;2022-08-19T03:22:12;15.70;;;6.57;;
35434;SDS011;21556;55.782;37.528;2022-08-19T03:24:39;11.40;;;7.07;;
35434;SDS011;21556;55.782;37.528;2022-08-19T03:27:05;11.80;;;6.68;;
35434;SDS011;21556;55.782;37.528;2022-08-19T03:29:31;10.55;;;7.35;;
35434;SDS011;21556;55.782;37.528;2022-08-19T03:31:58;12.07;;;6.85;;
35434;SDS011;21556;55.782;37.528;2022-08-19T03:36:54;14.75;;;6.78;;
35434;SDS011;21556;55.782;37.528;2022-08-19T03:39:22;13.52;;;6.35;;
35434;SDS011;21556;55.782;37.528;2022-08-19T03:41:49;13.70;;;6.65;;
35434;SDS011;21556;55.782;37.528;2022-08-19T03:44:17;8.57;;;7.00;;
35434;SDS011;21556;55.782;37.528;2022-08-19T03:46:49;10.00;;;6.10;;
35434;SDS011;21556;55.782;37.528;2022-08-19T03:49:18;9.98;;;6.70;;
35434;SDS011;21556;55.782;37.528;2022-08-19T03:51:44;12.13;;;6.50;;
35434;SDS011;21556;55.782;37.528;2022-08-19T03:54:13;9.45;;;6.13;;
35434;SDS011;21556;55.782;37.528;2022-08-19T03:56:42;16.00;;;6.60;;
35434;SDS011;21556;55.782;37.528;2022-08-19T04:01:36;12.48;;;5.80;;
35434;SDS011;21556;55.782;37.528;2022-08-19T04:04:02;14.75;;;7.07;;
35434;SDS011;21556;55.782;37.528;2022-08-19T04:06:29;10.88;;;5.75;;
35434;SDS011;21556;55.782;37.528;2022-08-19T04:09:01;10.32;;;6.10;;
35434;SDS011;21556;55.782;37.528;2022-08-19T04:11:40;10.50;;;6.45;;
35434;SDS011;21556;55.782;37.528;2022-08-19T04:14:15;12.38;;;6.25;;
35434;SDS011;21556;55.782;37.528;2022-08-19T04:16:43;14.32;;;6.47;;
35434;SDS011;21556;55.782;37.528;2022-08-19T04:19:09;15.77;;;6.30;;
35434;SDS011;21556;55.782;37.528;2022-08-19T04:21:35;15.07;;;6.85;;
35434;SDS011;21556;55.782;37.528;2022-08-19T04:24:02;13.43;;;6.88;;
35434;SDS011;21556;55.782;37.528;2022-08-19T04:26:31;13.50;;;7.10;;
35434;SDS011;21556;55.782;37.528;2022-08-19T04:29:04;11.40;;;6.55;;
35434;SDS011;21556;55.782;37.528;2022-08-19T04:31:34;19.27;;;6.82;;
35434;SDS011;21556;55.782;37.528;2022-08-19T04:34:04;10.07;;;6.50;;
35434;SDS011;21556;55.782;37.528;2022-08-19T04:36:36;14.23;;;6.13;;
35434;SDS011;21556;55.782;37.528;2022-08-19T04:39:06;10.18;;;7.00;;
35434;SDS011;21556;55.782;37.528;2022-08-19T04:41:33;10.63;;;6.10;;
35434;SDS011;21556;55.782;37.528;2022-08-19T04:44:18;11.07;;;6.25;;
35434;SDS011;21556;55.782;37.528;2022-08-19T04:46:45;11.13;;;7.32;;
35434;SDS011;21556;55.782;37.528;2022-08-19T04:49:13;16.05;;;6.18;;
35434;SDS011;21556;55.782;37.528;2022-08-19T04:51:42;11.10;;;6.22;;
35434;SDS011;21556;55.782;37.528;2022-08-19T04:54:10;15.30;;;6.55;;
35434;SDS011;21556;55.782;37.528;2022-08-19T04:56:39;10.95;;;6.57;;
35434;SDS011;21556;55.782;37.528;2022-08-19T04:59:15;10.45;;;5.88;;
35434;SDS011;21556;55.782;37.528;2022-08-19T05:01:48;12.07;;;5.88;;
35434;SDS011;21556;55.782;37.528;2022-08-19T05:04:16;11.65;;;5.95;;
35434;SDS011;21556;55.782;37.528;2022-08-19T05:06:44;8.68;;;5.93;;
35434;SDS011;21556;55.782;37.528;2022-08-19T05:09:12;13.32;;;5.85;;
35434;SDS011;21556;55.782;37.528;2022-08-19T05:11:39;10.50;;;5.90;;
35434;SDS011;21556;55.782;37.528;2022-08-19T05:14:06;9.93;;;6.32;;
35434;SDS011;21556;55.782;37.528;2022-08-19T05:16:33;7.10;;;5.70;;
35434;SDS011;21556;55.782;37.528;2022-08-19T05:18:59;9.93;;;5.30;;
35434;SDS011;21556;55.782;37.528;2022-08-19T05:21:43;9.07;;;6.10;;
35434;SDS011;21556;55.782;37.528;2022-08-19T05:24:28;10.20;;;5.88;;
35434;SDS011;21556;55.782;37.528;2022-08-19T05:26:55;9.10;;;4.68;;
35434;SDS011;21556;55.782;37.528;2022-08-19T05:29:23;17.33;;;5.63;;
35434;SDS011;21556;55.782;37.528;2022-08-19T05:31:51;8.65;;;5.13;;
35434;SDS011;21556;55.782;37.528;2022-08-19T05:34:17;10.90;;;4.95;;
35434;SDS011;21556;55.782;37.528;2022-08-19T05:36:47;10.10;;;4.93;;
35434;SDS011;21556;55.782;37.528;2022-08-19T05:39:17;7.40;;;4.90;;
35434;SDS011;21556;55.782;37.528;2022-08-19T05:41:45;7.88;;;5.07;;
35434;SDS011;21556;55.782;37.528;2022-08-19T05:44:15;10.63;;;5.03;;
35434;SDS011;21556;55.782;37.528;2022-08-19T05:46:45;8.75;;;5.40;;
35434;SDS011;21556;55.782;37.528;2022-08-19T05:49:15;7.95;;;4.75;;
35434;SDS011;21556;55.782;37.528;2022-08-19T05:51:41;8.50;;;5.05;;
35434;SDS011;21556;55.782;37.528;2022-08-19T05:54:08;10.35;;;5.22;;
35434;SDS011;21556;55.782;37.528;2022-08-19T05:56:34;13.13;;;4.82;;
35434;SDS011;21556;55.782;37.528;2022-08-19T05:59:06;13.10;;;5.65;;
35434;SDS011;21556;55.782;37.528;2022-08-19T06:01:40;11.48;;;5.75;;
35434;SDS011;21556;55.782;37.528;2022-08-19T06:04:08;10.85;;;5.25;;
35434;SDS011;21556;55.782;37.528;2022-08-19T06:06:34;12.15;;;5.25;;
35434;SDS011;21556;55.782;37.528;2022-08-19T06:09:02;10.57;;;5.15;;
35434;SDS011;21556;55.782;37.528;2022-08-19T06:11:33;10.65;;;5.15;;
35434;SDS011;21556;55.782;37.528;2022-08-19T06:14:01;11.38;;;5.68;;
35434;SDS011;21556;55.782;37.528;2022-08-19T06:16:28;13.85;;;5.07;;
35434;SDS011;21556;55.782;37.528;2022-08-19T06:18:55;13.70;;;5.47;;
35434;SDS011;21556;55.782;37.528;2022-08-19T06:21:25;12.02;;;5.65;;
35434;SDS011;21556;55.782;37.528;2022-08-19T06:26:20;10.38;;;4.57;;
35434;SDS011;21556;55.782;37.528;2022-08-19T06:28:47;12.52;;;4.90;;
35434;SDS011;21556;55.782;37.528;2022-08-19T06:31:14;19.55;;;5.95;;
35434;SDS011;21556;55.782;37.528;2022-08-19T06:33:46;9.88;;;5.20;;
35434;SDS011;21556;55.782;37.528;2022-08-19T06:36:24;15.93;;;5.68;;
35434;SDS011;21556;55.782;37.528;2022-08-19T06:39:39;11.50;;;5.53;;
35434;SDS011;21556;55.782;37.528;2022-08-19T06:41:50;14.45;;;5.47;;
35434;SDS011;21556;55.782;37.528;2022-08-19T06:44:19;6.40;;;4.63;;
35434;SDS011;21556;55.782;37.528;2022-08-19T06:46:46;11.10;;;5.20;;
35434;SDS011;21556;55.782;37.528;2022-08-19T06:49:14;8.25;;;5.40;;
35434;SDS011;21556;55.782;37.528;2022-08-19T06:51:41;11.38;;;5.22;;
35434;SDS011;21556;55.782;37.528;2022-08-19T06:54:09;8.23;;;4.97;;
35434;SDS011;21556;55.782;37.528;2022-08-19T06:56:36;12.60;;;4.70;;
35434;SDS011;21556;55.782;37.528;2022-08-19T06:59:07;11.60;;;4.90;;
35434;SDS011;21556;55.782;37.528;2022-08-19T07:01:42;11.40;;;4.95;;
35434;SDS011;21556;55.782;37.528;2022-08-19T07:04:12;9.00;;;5.20;;
35434;SDS011;21556;55.782;37.528;2022-08-19T07:06:41;11.52;;;4.60;;
35434;SDS011;21556;55.782;37.528;2022-08-19T07:09:08;10.25;;;5.00;;
35434;SDS011;21556;55.782;37.528;2022-08-19T07:11:34;8.00;;;4.53;;
35434;SDS011;21556;55.782;37.528;2022-08-19T07:14:01;9.52;;;4.93;;
35434;SDS011;21556;55.782;37.528;2022-08-19T07:16:28;10.82;;;5.15;;
35434;SDS011;21556;55.782;37.528;2022-08-19T07:18:55;6.88;;;4.85;;
35434;SDS011;21556;55.782;37.528;2022-08-19T07:21:23;14.25;;;5.10;;
35434;SDS011;21556;55.782;37.528;2022-08-19T07:23:53;12.55;;;5.20;;
35434;SDS011;21556;55.782;37.528;2022-08-19T07:26:23;17.27;;;7.05;;
35434;SDS011;21556;55.782;37.528;2022-08-19T07:28:51;12.25;;;5.28;;
35434;SDS011;21556;55.782;37.528;2022-08-19T07:31:18;16.52;;;5.20;;
35434;SDS011;21556;55.782;37.528;2022-08-19T07:36:12;9.98;;;4.22;;
35434;SDS011;21556;55.782;37.528;2022-08-19T07:41:08;8.00;;;5.55;;
35434;SDS011;21556;55.782;37.528;2022-08-19T07:43:36;10.52;;;4.30;;
35434;SDS011;21556;55.782;37.528;2022-08-19T07:46:02;13.07;;;5.55;;
35434;SDS011;21556;55.782;37.528;2022-08-19T07:48:28;14.75;;;4.97;;
35434;SDS011;21556;55.782;37.528;2022-08-19T07:50:55;9.95;;;4.88;;
35434;SDS011;21556;55.782;37.528;2022-08-19T07:53:24;23.55;;;4.72;;
35434;SDS011;21556;55.782;37.528;2022-08-19T07:55:50;13.48;;;4.85;;
35434;SDS011;21556;55.782;37.528;2022-08-19T07:58:18;10.32;;;4.18;;
35434;SDS011;21556;55.782;37.528;2022-08-19T08:00:46;9.80;;;4.00;;
35434;SDS011;21556;55.782;37.528;2022-08-19T08:03:14;7.57;;;4.00;;
35434;SDS011;21556;55.782;37.528;2022-08-19T08:08:26;16.88;;;3.90;;
35434;SDS011;21556;55.782;37.528;2022-08-19T08:11:11;10.55;;;4.20;;
35434;SDS011;21556;55.782;37.528;2022-08-19T08:13:38;7.53;;;3.33;;
35434;SDS011;21556;55.782;37.528;2022-08-19T08:16:06;7.38;;;3.80;;
35434;SDS011;21556;55.782;37.528;2022-08-19T08:18:32;10.68;;;4.45;;
35434;SDS011;21556;55.782;37.528;2022-08-19T08:21:02;11.63;;;4.30;;
35434;SDS011;21556;55.782;37.528;2022-08-19T08:23:28;6.72;;;4.13;;
35434;SDS011;21556;55.782;37.528;2022-08-19T08:25:56;12.20;;;4.70;;
35434;SDS011;21556;55.782;37.528;2022-08-19T08:28:23;9.43;;;3.95;;
35434;SDS011;21556;55.782;37.528;2022-08-19T08:30:51;5.45;;;4.78;;
35434;SDS011;21556;55.782;37.528;2022-08-19T08:33:20;10.10;;;4.57;;
35434;SDS011;21556;55.782;37.528;2022-08-19T08:35:47;8.15;;;4.47;;
35434;SDS011;21556;55.782;37.528;2022-08-19T08:38:13;10.90;;;5.10;;
35434;SDS011;21556;55.782;37.528;2022-08-19T08:40:47;8.23;;;4.93;;
35434;SDS011;21556;55.782;37.528;2022-08-19T08:51:04;10.93;;;5.00;;
35434;SDS011;21556;55.782;37.528;2022-08-19T08:53:35;6.30;;;4.43;;
35434;SDS011;21556;55.782;37.528;2022-08-19T08:56:03;9.98;;;3.83;;
35434;SDS011;21556;55.782;37.528;2022-08-19T08:58:35;11.57;;;5.93;;
35434;SDS011;21556;55.782;37.528;2022-08-19T09:01:09;8.60;;;4.28;;
35434;SDS011;21556;55.782;37.528;2022-08-19T09:03:36;8.13;;;4.72;;
35434;SDS011;21556;55.782;37.528;2022-08-19T09:14:36;11.13;;;4.47;;
35434;SDS011;21556;55.782;37.528;2022-08-19T09:17:07;8.07;;;3.92;;
35434;SDS011;21556;55.782;37.528;2022-08-19T09:19:36;8.27;;;4.88;;
35434;SDS011;21556;55.782;37.528;2022-08-19T09:22:13;8.07;;;4.22;;
35434;SDS011;21556;55.782;37.528;2022-08-19T09:24:39;7.35;;;4.50;;
35434;SDS011;21556;55.782;37.528;2022-08-19T09:27:09;9.10;;;4.65;;
35434;SDS011;21556;55.782;37.528;2022-08-19T09:29:34;13.20;;;4.50;;
35434;SDS011;21556;55.782;37.528;2022-08-19T09:32:00;10.35;;;4.18;;
35434;SDS011;21556;55.782;37.528;2022-08-19T09:34:27;9.65;;;5.03;;
35434;SDS011;21556;55.782;37.528;2022-08-19T09:36:54;11.70;;;4.20;;
35434;SDS011;21556;55.782;37.528;2022-08-19T09:39:25;11.43;;;5.00;;
35434;SDS011;21556;55.782;37.528;2022-08-19T09:41:51;8.32;;;4.50;;
35434;SDS011;21556;55.782;37.528;2022-08-19T09:44:18;11.18;;;4.95;;
35434;SDS011;21556;55.782;37.528;2022-08-19T09:46:45;7.10;;;4.80;;
35434;SDS011;21556;55.782;37.528;2022-08-19T09:49:15;9.50;;;4.30;;
35434;SDS011;21556;55.782;37.528;2022-08-19T09:51:42;12.02;;;4.40;;
35434;SDS011;21556;55.782;37.528;2022-08-19T09:54:08;8.57;;;4.85;;
35434;SDS011;21556;55.782;37.528;2022-08-19T09:56:34;10.07;;;4.65;;
35434;SDS011;21556;55.782;37.528;2022-08-19T09:59:01;9.30;;;5.13;;
35434;SDS011;21556;55.782;37.528;2022-08-19T10:01:29;10.52;;;4.18;;
35434;SDS011;21556;55.782;37.528;2022-08-19T10:03:57;8.55;;;3.67;;
35434;SDS011;21556;55.782;37.528;2022-08-19T10:06:25;9.68;;;4.28;;
35434;SDS011;21556;55.782;37.528;2022-08-19T10:08:55;6.07;;;4.30;;
35434;SDS011;21556;55.782;37.528;2022-08-19T10:11:21;5.82;;;4.10;;
35434;SDS011;21556;55.782;37.528;2022-08-19T10:13:47;8.90;;;4.00;;
35434;SDS011;21556;55.782;37.528;2022-08-19T10:16:15;8.68;;;3.47;;
35434;SDS011;21556;55.782;37.528;2022-08-19T10:18:44;14.15;;;4.45;;
35434;SDS011;21556;55.782;37.528;2022-08-19T10:21:12;8.43;;;5.43;;
35434;SDS011;21556;55.782;37.528;2022-08-19T10:23:40;15.93;;;5.38;;
35434;SDS011;21556;55.782;37.528;2022-08-19T10:26:15;11.25;;;5.03;;
35434;SDS011;21556;55.782;37.528;2022-08-19T10:28:44;10.80;;;5.05;;
35434;SDS011;21556;55.782;37.528;2022-08-19T10:31:12;9.18;;;4.90;;
35434;SDS011;21556;55.782;37.528;2022-08-19T10:33:40;8.45;;;5.47;;
35434;SDS011;21556;55.782;37.528;2022-08-19T10:36:07;18.27;;;5.55;;
35434;SDS011;21556;55.782;37.528;2022-08-19T10:38:43;13.02;;;4.85;;
35434;SDS011;21556;55.782;37.528;2022-08-19T10:41:17;7.10;;;4.90;;
35434;SDS011;21556;55.782;37.528;2022-08-19T10:43:45;15.73;;;5.10;;
35434;SDS011;21556;55.782;37.528;2022-08-19T10:46:12;9.35;;;4.28;;
35434;SDS011;21556;55.782;37.528;2022-08-19T10:48:41;10.23;;;4.90;;
35434;SDS011;21556;55.782;37.528;2022-08-19T10:51:08;12.68;;;4.72;;
35434;SDS011;21556;55.782;37.528;2022-08-19T10:53:54;10.45;;;5.28;;
35434;SDS011;21556;55.782;37.528;2022-08-19T10:56:21;7.05;;;3.78;;
35434;SDS011;21556;55.782;37.528;2022-08-19T10:59:08;8.95;;;3.13;;
35434;SDS011;21556;55.782;37.528;2022-08-19T11:01:35;8.85;;;2.55;;
35434;SDS011;21556;55.782;37.528;2022-08-19T11:04:01;6.10;;;2.70;;
35434;SDS011;21556;55.782;37.528;2022-08-19T11:06:28;12.00;;;3.15;;
35434;SDS011;21556;55.782;37.528;2022-08-19T11:08:57;19.80;;;3.00;;
35434;SDS011;21556;55.782;37.528;2022-08-19T11:11:25;5.40;;;3.08;;
35434;SDS011;21556;55.782;37.528;2022-08-19T11:13:53;7.13;;;2.47;;
35434;SDS011;21556;55.782;37.528;2022-08-19T11:16:20;6.43;;;2.75;;
35434;SDS011;21556;55.782;37.528;2022-08-19T11:18:49;7.43;;;2.65;;
35434;SDS011;21556;55.782;37.528;2022-08-19T11:23:55;8.70;;;2.58;;
35434;SDS011;21556;55.782;37.528;2022-08-19T11:26:23;9.60;;;2.95;;
35434;SDS011;21556;55.782;37.528;2022-08-19T11:28:51;7.20;;;2.53;;
35434;SDS011;21556;55.782;37.528;2022-08-19T11:31:20;7.38;;;2.60;;
35434;SDS011;21556;55.782;37.528;2022-08-19T11:33:48;7.90;;;2.75;;
35434;SDS011;21556;55.782;37.528;2022-08-19T11:36:18;9.52;;;2.70;;
35434;SDS011;21556;55.782;37.528;2022-08-19T11:38:46;9.48;;;3.08;;
35434;SDS011;21556;55.782;37.528;2022-08-19T11:41:14;7.15;;;2.47;;
35434;SDS011;21556;55.782;37.528;2022-08-19T11:46:08;8.20;;;2.53;;
35434;SDS011;21556;55.782;37.528;2022-08-19T11:48:37;7.88;;;2.63;;
35434;SDS011;21556;55.782;37.528;2022-08-19T11:51:05;7.70;;;2.63;;
35434;SDS011;21556;55.782;37.528;2022-08-19T11:53:34;7.53;;;2.58;;
35434;SDS011;21556;55.782;37.528;2022-08-19T11:56:00;10.27;;;3.03;;
35434;SDS011;21556;55.782;37.528;2022-08-19T11:58:27;8.32;;;2.63;;
35434;SDS011;21556;55.782;37.528;2022-08-19T12:00:54;7.68;;;2.53;;
35434;SDS011;21556;55.782;37.528;2022-08-19T12:03:20;4.88;;;2.40;;
35434;SDS011;21556;55.782;37.528;2022-08-19T12:05:46;6.35;;;2.58;;
35434;SDS011;21556;55.782;37.528;2022-08-19T12:08:12;9.65;;;2.60;;
35434;SDS011;21556;55.782;37.528;2022-08-19T12:10:39;3.50;;;2.40;;
35434;SDS011;21556;55.782;37.528;2022-08-19T12:13:08;7.60;;;3.15;;
35434;SDS011;21556;55.782;37.528;2022-08-19T12:15:38;3.30;;;2.80;;
35434;SDS011;21556;55.782;37.528;2022-08-19T12:18:08;6.90;;;3.38;;
35434;SDS011;21556;55.782;37.528;2022-08-19T12:20:38;7.05;;;2.90;;
35434;SDS011;21556;55.782;37.528;2022-08-19T12:23:06;7.68;;;3.42;;
35434;SDS011;21556;55.782;37.528;2022-08-19T12:25:35;8.57;;;3.00;;
35434;SDS011;21556;55.782;37.528;2022-08-19T12:28:02;11.20;;;3.53;;
35434;SDS011;21556;55.782;37.528;2022-08-19T12:30:28;6.95;;;3.00;;
35434;SDS011;21556;55.782;37.528;2022-08-19T12:32:55;6.72;;;3.05;;
35434;SDS011;21556;55.782;37.528;2022-08-19T12:35:21;7.00;;;3.03;;
35434;SDS011;21556;55.782;37.528;2022-08-19T12:37:47;8.55;;;3.15;;
35434;SDS011;21556;55.782;37.528;2022-08-19T12:40:14;4.25;;;2.88;;
35434;SDS011;21556;55.782;37.528;2022-08-19T12:42:42;8.18;;;2.92;;
35434;SDS011;21556;55.782;37.528;2022-08-19T12:45:08;9.50;;;3.53;;
35434;SDS011;21556;55.782;37.528;2022-08-19T12:47:35;13.23;;;3.60;;
35434;SDS011;21556;55.782;37.528;2022-08-19T12:50:02;9.68;;;3.15;;
35434;SDS011;21556;55.782;37.528;2022-08-19T12:52:29;11.00;;;3.35;;
35434;SDS011;21556;55.782;37.528;2022-08-19T12:54:55;6.90;;;3.10;;
35434;SDS011;21556;55.782;37.528;2022-08-19T12:57:23;10.05;;;3.38;;
35434;SDS011;21556;55.782;37.528;2022-08-19T12:59:53;7.43;;;3.15;;
35434;SDS011;21556;55.782;37.528;2022-08-19T13:02:20;6.85;;;2.85;;
35434;SDS011;21556;55.782;37.528;2022-08-19T13:04:46;7.75;;;3.40;;
35434;SDS011;21556;55.782;37.528;2022-08-19T13:07:12;7.55;;;3.50;;
35434;SDS011;21556;55.782;37.528;2022-08-19T13:09:38;11.23;;;3.00;;
35434;SDS011;21556;55.782;37.528;2022-08-19T13:12:07;9.07;;;3.28;;
35434;SDS011;21556;55.782;37.528;2022-08-19T13:14:39;9.23;;;2.95;;
35434;SDS011;21556;55.782;37.528;2022-08-19T13:17:06;9.07;;;3.10;;
35434;SDS011;21556;55.782;37.528;2022-08-19T13:19:32;5.97;;;3.35;;
35434;SDS011;21556;55.782;37.528;2022-08-19T13:21:58;5.93;;;2.95;;
35434;SDS011;21556;55.782;37.528;2022-08-19T13:24:24;6.85;;;3.40;;
35434;SDS011;21556;55.782;37.528;2022-08-19T13:26:50;6.07;;;2.97;;
35434;SDS011;21556;55.782;37.528;2022-08-19T13:29:16;5.75;;;3.38;;
35434;SDS011;21556;55.782;37.528;2022-08-19T13:32:00;8.40;;;3.85;;
35434;SDS011;21556;55.782;37.528;2022-08-19T13:34:44;7.47;;;3.30;;
35434;SDS011;21556;55.782;37.528;2022-08-19T13:37:11;7.20;;;3.58;;
35434;SDS011;21556;55.782;37.528;2022-08-19T13:39:37;7.22;;;3.20;;
35434;SDS011;21556;55.782;37.528;2022-08-19T13:42:03;10.32;;;3.80;;
35434;SDS011;21556;55.782;37.528;2022-08-19T13:44:30;8.20;;;3.42;;
35434;SDS011;21556;55.782;37.528;2022-08-19T13:47:03;9.05;;;3.50;;
35434;SDS011;21556;55.782;37.528;2022-08-19T13:52:01;5.70;;;3.42;;
35434;SDS011;21556;55.782;37.528;2022-08-19T13:54:27;7.78;;;3.40;;
35434;SDS011;21556;55.782;37.528;2022-08-19T13:56:53;5.30;;;3.28;;
35434;SDS011;21556;55.782;37.528;2022-08-19T13:59:19;6.03;;;2.92;;
35434;SDS011;21556;55.782;37.528;2022-08-19T14:01:45;6.07;;;3.65;;
35434;SDS011;21556;55.782;37.528;2022-08-19T14:04:11;12.05;;;3.30;;
35434;SDS011;21556;55.782;37.528;2022-08-19T14:06:37;7.35;;;3.67;;
35434;SDS011;21556;55.782;37.528;2022-08-19T14:09:03;7.55;;;4.00;;
35434;SDS011;21556;55.782;37.528;2022-08-19T14:11:29;6.38;;;3.35;;
35434;SDS011;21556;55.782;37.528;2022-08-19T14:13:55;8.40;;;3.67;;
35434;SDS011;21556;55.782;37.528;2022-08-19T14:16:21;7.68;;;3.50;;
35434;SDS011;21556;55.782;37.528;2022-08-19T14:18:47;7.47;;;3.55;;
35434;SDS011;21556;55.782;37.528;2022-08-19T14:21:17;18.00;;;3.80;;
35434;SDS011;21556;55.782;37.528;2022-08-19T14:23:48;6.68;;;3.38;;
35434;SDS011;21556;55.782;37.528;2022-08-19T14:26:15;12.55;;;3.53;;
35434;SDS011;21556;55.782;37.528;2022-08-19T14:28:42;6.43;;;3.22;;
35434;SDS011;21556;55.782;37.528;2022-08-19T14:31:10;7.95;;;3.90;;
35434;SDS011;21556;55.782;37.528;2022-08-19T14:33:43;6.20;;;4.57;;
35434;SDS011;21556;55.782;37.528;2022-08-19T14:36:10;7.18;;;4.28;;
35434;SDS011;21556;55.782;37.528;2022-08-19T14:38:36;9.15;;;5.20;;
35434;SDS011;21556;55.782;37.528;2022-08-19T14:43:42;13.02;;;6.10;;
35434;SDS011;21556;55.782;37.528;2022-08-19T14:46:18;12.30;;;9.00;;
35434;SDS011;21556;55.782;37.528;2022-08-19T14:48:46;24.27;;;13.40;;
35434;SDS011;21556;55.782;37.528;2022-08-19T14:51:13;18.52;;;13.63;;
35434;SDS011;21556;55.782;37.528;2022-08-19T14:53:39;18.73;;;12.65;;
35434;SDS011;21556;55.782;37.528;2022-08-19T14:56:10;13.63;;;12.27;;
35434;SDS011;21556;55.782;37.528;2022-08-19T14:58:38;14.05;;;10.27;;
35434;SDS011;21556;55.782;37.528;2022-08-19T15:01:06;12.40;;;8.35;;
35434;SDS011;21556;55.782;37.528;2022-08-19T15:03:32;10.85;;;7.50;;
35434;SDS011;21556;55.782;37.528;2022-08-19T15:05:59;12.93;;;7.28;;
35434;SDS011;21556;55.782;37.528;2022-08-19T15:08:26;11.75;;;6.63;;
35434;SDS011;21556;55.782;37.528;2022-08-19T15:10:54;13.95;;;6.13;;
35434;SDS011;21556;55.782;37.528;2022-08-19T15:13:21;14.50;;;6.22;;
35434;SDS011;21556;55.782;37.528;2022-08-19T15:15:47;8.75;;;5.68;;
35434;SDS011;21556;55.782;37.528;2022-08-19T15:18:17;12.80;;;6.10;;
35434;SDS011;21556;55.782;37.528;2022-08-19T15:20:46;7.68;;;4.88;;
35434;SDS011;21556;55.782;37.528;2022-08-19T15:23:13;15.02;;;5.00;;